createdAt,value
2023-05-10T00:01:27.308Z,100.00
2023-05-10T00:03:54.009Z,100.00
2023-05-10T00:06:21.294Z,100.00
2023-05-10T00:08:47.813Z,100.00
2023-05-10T00:11:14.376Z,100.00
2023-05-10T00:13:41.374Z,100.00
2023-05-10T00:16:08.116Z,100.00
2023-05-10T00:18:34.790Z,100.00
2023-05-10T00:21:01.435Z,100.00
2023-05-10T00:23:27.977Z,100.00
2023-05-10T00:25:54.549Z,100.00
2023-05-10T00:28:21.158Z,100.00
2023-05-10T00:30:47.707Z,100.00
2023-05-10T00:33:14.302Z,100.00
2023-05-10T00:35:41.360Z,100.00
2023-05-10T00:38:07.958Z,100.00
2023-05-10T00:40:36.914Z,100.00
2023-05-10T00:43:04.052Z,100.00
2023-05-10T00:45:33.693Z,100.00
2023-05-10T00:48:03.417Z,100.00
2023-05-10T00:50:30.604Z,100.00
2023-05-10T00:52:58.721Z,100.00
2023-05-10T00:55:25.371Z,100.00
2023-05-10T00:57:52.403Z,100.00
2023-05-10T01:00:19.670Z,100.00
2023-05-10T01:02:47.478Z,100.00
2023-05-10T01:05:14.729Z,100.00
2023-05-10T01:07:42.108Z,100.00
2023-05-10T01:10:09.747Z,100.00
2023-05-10T01:12:41.664Z,100.00
2023-05-10T01:15:10.673Z,100.00
2023-05-10T01:17:40.453Z,100.00
2023-05-10T01:20:11.851Z,100.00
2023-05-10T01:23:00.174Z,100.00
2023-05-10T01:25:48.402Z,100.00
2023-05-10T01:28:36.878Z,100.00
2023-05-10T01:31:09.355Z,100.00
2023-05-10T01:34:03.471Z,100.00
2023-05-10T01:36:48.264Z,100.00
2023-05-10T01:39:37.075Z,100.00
2023-05-10T01:42:15.041Z,100.00
2023-05-10T01:44:53.970Z,100.00
2023-05-10T01:47:43.029Z,100.00
2023-05-10T01:50:14.370Z,100.00
2023-05-10T01:52:44.826Z,100.00
2023-05-10T01:55:17.086Z,100.00
2023-05-10T01:57:47.105Z,100.00
2023-05-10T02:00:15.725Z,100.00
2023-05-10T02:02:47.018Z,100.00
2023-05-10T02:05:15.427Z,100.00
2023-05-10T02:07:42.772Z,100.00
2023-05-10T02:10:10.917Z,100.00
2023-05-10T02:12:42.636Z,100.00
2023-05-10T02:15:11.565Z,100.00
2023-05-10T02:17:40.196Z,100.00
2023-05-10T02:20:08.774Z,100.00
2023-05-10T02:22:36.775Z,100.00
2023-05-10T02:25:04.673Z,100.00
2023-05-10T02:27:32.016Z,100.00
2023-05-10T02:29:59.525Z,100.00
2023-05-10T02:32:28.583Z,100.00
2023-05-10T02:34:56.182Z,100.00
2023-05-10T02:37:23.587Z,100.00
2023-05-10T02:39:51.741Z,100.00
2023-05-10T02:42:20.558Z,100.00
2023-05-10T02:44:50.497Z,100.00
2023-05-10T02:47:17.771Z,100.00
2023-05-10T02:49:44.414Z,100.00
2023-05-10T02:52:11.543Z,100.00
2023-05-10T02:54:46.256Z,100.00
2023-05-10T02:57:20.266Z,100.00
2023-05-10T02:59:47.093Z,100.00
2023-05-10T03:02:14.154Z,100.00
2023-05-10T03:04:40.832Z,100.00
2023-05-10T03:07:08.714Z,100.00
2023-05-10T03:09:35.505Z,100.00
2023-05-10T03:12:07.776Z,100.00
2023-05-10T03:14:40.371Z,100.00
2023-05-10T03:17:09.984Z,100.00
2023-05-10T03:19:54.548Z,100.00
2023-05-10T03:22:48.012Z,100.00
2023-05-10T03:25:17.644Z,100.00
2023-05-10T03:27:45.680Z,100.00
2023-05-10T03:30:14.010Z,100.00
2023-05-10T03:32:41.010Z,100.00
2023-05-10T03:35:11.636Z,100.00
2023-05-10T03:37:38.370Z,100.00
2023-05-10T03:40:05.537Z,100.00
2023-05-10T03:42:32.294Z,100.00
2023-05-10T03:44:58.859Z,100.00
2023-05-10T03:47:25.432Z,100.00
2023-05-10T03:49:51.945Z,100.00
2023-05-10T03:52:19.166Z,100.00
2023-05-10T03:54:45.731Z,100.00
2023-05-10T03:57:12.264Z,100.00
2023-05-10T03:59:38.954Z,100.00
2023-05-10T04:02:05.508Z,100.00
2023-05-10T04:04:32.118Z,100.00
2023-05-10T04:06:58.831Z,100.00
2023-05-10T04:09:25.410Z,100.00
2023-05-10T04:11:52.257Z,100.00
2023-05-10T04:14:18.859Z,100.00
2023-05-10T04:16:45.897Z,100.00
2023-05-10T04:19:12.657Z,100.00
2023-05-10T04:21:39.260Z,100.00
2023-05-10T04:24:06.072Z,100.00
2023-05-10T04:26:32.699Z,100.00
2023-05-10T04:28:59.274Z,100.00
2023-05-10T04:31:26.016Z,100.00
2023-05-10T04:33:53.243Z,100.00
2023-05-10T04:36:19.803Z,100.00
2023-05-10T04:38:46.393Z,100.00
2023-05-10T04:41:13.161Z,100.00
2023-05-10T04:43:39.807Z,100.00
2023-05-10T04:46:06.927Z,100.00
2023-05-10T04:48:33.607Z,100.00
2023-05-10T04:51:00.672Z,100.00
2023-05-10T04:53:27.230Z,100.00
2023-05-10T04:55:53.847Z,100.00
2023-05-10T04:58:20.384Z,100.00
2023-05-10T05:00:46.998Z,100.00
2023-05-10T05:03:13.655Z,100.00
2023-05-10T05:05:40.284Z,100.00
2023-05-10T05:08:06.923Z,100.00
2023-05-10T05:10:33.636Z,100.00
2023-05-10T05:13:00.272Z,100.00
2023-05-10T05:15:27.052Z,100.00
2023-05-10T05:17:53.671Z,100.00
2023-05-10T05:20:20.288Z,100.00
2023-05-10T05:22:46.972Z,100.00
2023-05-10T05:25:13.735Z,100.00
2023-05-10T05:27:40.318Z,100.00
2023-05-10T05:30:08.008Z,100.00
2023-05-10T05:32:34.823Z,100.00
2023-05-10T05:35:01.518Z,100.00
2023-05-10T05:37:28.117Z,100.00
2023-05-10T05:39:55.972Z,100.00
2023-05-10T05:42:22.665Z,100.00
2023-05-10T05:44:49.273Z,100.00
2023-05-10T05:47:15.916Z,100.00
2023-05-10T05:49:42.489Z,100.00
2023-05-10T05:52:09.120Z,100.00
2023-05-10T05:54:35.655Z,100.00
2023-05-10T05:57:02.208Z,100.00
2023-05-10T05:59:29.194Z,100.00
2023-05-10T06:01:55.917Z,99.39
2023-05-10T06:04:22.664Z,99.38
2023-05-10T06:06:49.491Z,97.21
2023-05-10T06:09:16.140Z,97.96
2023-05-10T06:11:42.721Z,97.79
2023-05-10T06:14:09.355Z,98.68
2023-05-10T06:16:36.257Z,98.87
2023-05-10T06:19:03.877Z,97.77
2023-05-10T06:21:31.085Z,98.94
2023-05-10T06:23:57.985Z,97.74
2023-05-10T06:26:24.617Z,99.85
2023-05-10T06:28:51.159Z,98.52
2023-05-10T06:31:17.902Z,98.01
2023-05-10T06:33:44.474Z,98.29
2023-05-10T06:36:11.050Z,97.97
2023-05-10T06:38:37.938Z,98.09
2023-05-10T06:41:04.491Z,97.51
2023-05-10T06:43:31.092Z,97.39
2023-05-10T06:45:57.776Z,97.77
2023-05-10T06:48:24.648Z,97.49
2023-05-10T06:50:51.222Z,97.47
2023-05-10T06:53:17.815Z,98.35
2023-05-10T06:55:44.538Z,98.40
2023-05-10T06:58:11.049Z,96.32
2023-05-10T07:00:41.523Z,93.95
2023-05-10T07:03:08.330Z,93.72
2023-05-10T07:05:35.469Z,94.71
2023-05-10T07:08:02.956Z,95.29
2023-05-10T07:10:29.520Z,92.58
2023-05-10T07:12:56.208Z,92.46
2023-05-10T07:15:23.004Z,92.01
2023-05-10T07:17:49.746Z,90.98
2023-05-10T07:20:16.577Z,93.25
2023-05-10T07:22:43.247Z,93.82
2023-05-10T07:25:10.018Z,92.58
2023-05-10T07:27:36.919Z,92.94
2023-05-10T07:30:03.926Z,90.75
2023-05-10T07:32:30.686Z,92.00
2023-05-10T07:34:57.376Z,90.06
2023-05-10T07:37:23.939Z,89.75
2023-05-10T07:39:50.539Z,87.37
2023-05-10T07:42:17.352Z,86.97
2023-05-10T07:44:44.337Z,83.34
2023-05-10T07:47:10.926Z,83.69
2023-05-10T07:49:37.555Z,84.16
2023-05-10T07:52:04.706Z,81.17
2023-05-10T07:54:31.471Z,82.51
2023-05-10T07:56:58.106Z,84.99
2023-05-10T07:59:24.746Z,83.57
2023-05-10T08:01:51.273Z,87.58
2023-05-10T08:04:17.879Z,84.00
2023-05-10T08:06:44.454Z,84.45
2023-05-10T08:09:11.969Z,82.02
2023-05-10T08:11:38.896Z,82.44
2023-05-10T08:14:05.506Z,84.74
2023-05-10T08:16:33.468Z,74.03
2023-05-10T08:19:00.312Z,72.33
2023-05-10T08:21:27.280Z,75.93
2023-05-10T08:23:53.923Z,76.83
2023-05-10T08:26:22.567Z,73.61
2023-05-10T08:28:49.501Z,75.43
2023-05-10T08:31:16.662Z,72.67
2023-05-10T08:33:44.507Z,75.27
2023-05-10T08:36:11.676Z,73.89
2023-05-10T08:38:39.054Z,74.67
2023-05-10T08:41:06.443Z,75.68
2023-05-10T08:43:33.272Z,74.86
2023-05-10T08:46:05.924Z,74.29
2023-05-10T08:48:35.469Z,70.22
2023-05-10T08:51:04.319Z,73.40
2023-05-10T08:53:34.172Z,69.71
2023-05-10T08:56:03.454Z,65.09
2023-05-10T08:58:30.106Z,66.67
2023-05-10T09:00:58.033Z,66.03
2023-05-10T09:03:24.695Z,65.29
2023-05-10T09:05:51.478Z,71.49
2023-05-10T09:08:18.899Z,65.02
2023-05-10T09:10:48.318Z,67.52
2023-05-10T09:13:16.629Z,64.24
2023-05-10T09:15:44.925Z,63.69
2023-05-10T09:18:12.164Z,65.49
2023-05-10T09:20:38.782Z,62.41
2023-05-10T09:23:06.001Z,63.29
2023-05-10T09:25:34.609Z,64.16
2023-05-10T09:28:01.759Z,59.19
2023-05-10T09:30:32.150Z,61.18
2023-05-10T09:33:00.877Z,59.36
2023-05-10T09:35:32.587Z,58.96
2023-05-10T09:38:01.781Z,56.54
2023-05-10T09:40:29.770Z,57.68
2023-05-10T09:43:00.874Z,59.42
2023-05-10T09:45:32.544Z,58.87
2023-05-10T09:48:00.598Z,59.94
2023-05-10T09:50:27.765Z,56.74
2023-05-10T09:53:02.000Z,55.01
2023-05-10T09:55:47.369Z,55.60
2023-05-10T09:58:15.391Z,56.27
2023-05-10T10:00:48.756Z,57.11
2023-05-10T10:03:18.462Z,58.63
2023-05-10T10:05:46.285Z,60.52
2023-05-10T10:08:14.058Z,60.12
2023-05-10T10:10:41.856Z,58.97
2023-05-10T10:13:09.243Z,59.58
2023-05-10T10:15:36.652Z,55.00
2023-05-10T10:18:05.233Z,56.85
2023-05-10T10:20:32.151Z,59.51
2023-05-10T10:22:58.752Z,56.59
2023-05-10T10:25:26.574Z,57.31
2023-05-10T10:27:53.211Z,56.45
2023-05-10T10:30:42.741Z,56.51
2023-05-10T10:33:30.836Z,58.35
2023-05-10T10:36:01.025Z,54.45
2023-05-10T10:38:38.212Z,55.57
2023-05-10T10:41:29.449Z,55.98
2023-05-10T10:44:27.300Z,58.45
2023-05-10T10:47:00.615Z,60.13
2023-05-10T10:49:27.991Z,61.49
2023-05-10T10:52:28.692Z,57.62
2023-05-10T10:55:11.674Z,60.90
2023-05-10T10:57:41.271Z,60.29
2023-05-10T11:00:23.033Z,57.22
2023-05-10T11:02:52.715Z,57.45
2023-05-10T11:05:25.842Z,58.78
2023-05-10T11:07:59.616Z,56.31
2023-05-10T11:10:27.795Z,52.88
2023-05-10T11:12:55.101Z,56.47
2023-05-10T11:15:29.862Z,53.46
2023-05-10T11:17:56.977Z,55.69
2023-05-10T11:20:25.924Z,56.42
2023-05-10T11:22:53.347Z,54.50
2023-05-10T11:25:20.394Z,55.12
2023-05-10T11:27:49.222Z,53.52
2023-05-10T11:30:16.255Z,55.22
2023-05-10T11:32:43.761Z,54.84
2023-05-10T11:35:11.612Z,53.20
2023-05-10T11:37:42.396Z,51.35
2023-05-10T11:40:10.804Z,55.40
2023-05-10T11:42:38.845Z,54.52
2023-05-10T11:45:06.666Z,52.82
2023-05-10T11:47:33.272Z,55.77
2023-05-10T11:50:01.071Z,53.48
2023-05-10T11:52:27.703Z,54.52
2023-05-10T11:54:55.364Z,52.67
2023-05-10T11:57:26.706Z,54.00
2023-05-10T11:59:58.183Z,51.15
2023-05-10T12:02:25.318Z,51.41
2023-05-10T12:04:52.712Z,48.90
2023-05-10T12:07:19.332Z,52.14
2023-05-10T12:10:03.404Z,51.53
2023-05-10T12:12:43.376Z,51.26
2023-05-10T12:15:29.206Z,53.14
2023-05-10T12:17:57.709Z,48.36
2023-05-10T12:20:25.544Z,52.34
2023-05-10T12:22:58.327Z,51.04
2023-05-10T12:25:33.713Z,50.67
2023-05-10T12:28:03.644Z,47.18
2023-05-10T12:30:32.160Z,46.67
2023-05-10T12:33:09.986Z,49.00
2023-05-10T12:35:46.926Z,49.39
2023-05-10T12:38:52.386Z,49.26
2023-05-10T12:41:19.438Z,45.66
2023-05-10T12:43:49.193Z,49.54
2023-05-10T12:46:19.543Z,48.76
2023-05-10T12:48:47.362Z,48.56
2023-05-10T12:51:16.768Z,48.53
2023-05-10T12:53:45.661Z,47.68
2023-05-10T12:56:13.213Z,46.60
2023-05-10T12:58:39.689Z,47.91
2023-05-10T13:01:06.569Z,43.87
2023-05-10T13:03:33.197Z,46.50
2023-05-10T13:05:59.720Z,46.33
2023-05-10T13:08:26.300Z,44.88
2023-05-10T13:10:53.215Z,42.80
2023-05-10T13:13:19.791Z,41.90
2023-05-10T13:15:46.284Z,44.17
2023-05-10T13:18:12.805Z,42.95
2023-05-10T13:20:39.479Z,43.19
2023-05-10T13:23:06.038Z,43.49
2023-05-10T13:25:32.620Z,48.42
2023-05-10T13:27:59.102Z,45.14
2023-05-10T13:30:25.546Z,46.34
2023-05-10T13:32:52.109Z,45.22
2023-05-10T13:35:18.763Z,44.58
2023-05-10T13:37:45.298Z,46.80
2023-05-10T13:40:11.974Z,43.74
2023-05-10T13:42:38.529Z,43.06
2023-05-10T13:45:05.674Z,42.84
2023-05-10T13:47:32.400Z,41.77
2023-05-10T13:49:59.332Z,44.43
2023-05-10T13:52:27.709Z,43.00
2023-05-10T13:54:56.214Z,42.01
2023-05-10T13:57:24.026Z,44.03
2023-05-10T13:59:50.912Z,42.47
2023-05-10T14:02:17.341Z,46.48
2023-05-10T14:04:44.158Z,46.15
2023-05-10T14:07:10.623Z,45.77
2023-05-10T14:09:37.182Z,45.85
2023-05-10T14:12:03.788Z,44.05
2023-05-10T14:14:30.480Z,44.26
2023-05-10T14:16:57.196Z,42.23
2023-05-10T14:19:23.775Z,45.05
2023-05-10T14:21:50.451Z,42.50
2023-05-10T14:24:16.955Z,44.83
2023-05-10T14:26:43.454Z,43.32
2023-05-10T14:29:12.248Z,44.47
2023-05-10T14:31:39.263Z,42.03
2023-05-10T14:34:06.727Z,42.15
2023-05-10T14:36:33.597Z,42.61
2023-05-10T14:39:00.239Z,43.77
2023-05-10T14:41:26.710Z,46.41
2023-05-10T14:43:53.734Z,45.72
2023-05-10T14:46:20.710Z,49.17
2023-05-10T14:48:47.343Z,49.47
2023-05-10T14:51:16.340Z,46.12
2023-05-10T14:53:43.751Z,47.64
2023-05-10T14:56:10.301Z,44.25
2023-05-10T14:58:36.786Z,39.66
2023-05-10T15:01:03.644Z,35.43
2023-05-10T15:03:30.809Z,32.63
2023-05-10T15:05:58.736Z,36.80
2023-05-10T15:08:25.689Z,39.45
2023-05-10T15:10:52.731Z,37.77
2023-05-10T15:13:19.196Z,38.89
2023-05-10T15:15:45.746Z,42.26
2023-05-10T15:18:12.580Z,42.62
2023-05-10T15:20:39.133Z,45.78
2023-05-10T15:23:05.660Z,46.73
2023-05-10T15:25:32.257Z,45.61
2023-05-10T15:27:58.724Z,45.97
2023-05-10T15:30:25.291Z,45.04
2023-05-10T15:32:51.850Z,45.67
2023-05-10T15:35:18.700Z,49.17
2023-05-10T15:37:45.658Z,50.29
2023-05-10T15:40:12.385Z,50.35
2023-05-10T15:42:38.895Z,49.91
2023-05-10T15:45:05.882Z,49.64
2023-05-10T15:47:32.693Z,49.90
2023-05-10T15:49:59.258Z,47.06
2023-05-10T15:52:25.903Z,47.90
2023-05-10T15:54:52.502Z,47.49
2023-05-10T15:57:19.083Z,48.88
2023-05-10T15:59:45.909Z,48.84
2023-05-10T16:02:12.615Z,47.11
2023-05-10T16:04:39.331Z,45.95
2023-05-10T16:07:06.079Z,38.86
2023-05-10T16:09:32.712Z,36.80
2023-05-10T16:11:59.447Z,32.05
2023-05-10T16:14:26.286Z,32.25
2023-05-10T16:16:52.964Z,30.28
2023-05-10T16:19:19.665Z,31.61
2023-05-10T16:21:47.545Z,30.34
2023-05-10T16:24:14.191Z,34.44
2023-05-10T16:26:41.232Z,35.11
2023-05-10T16:29:08.619Z,33.20
2023-05-10T16:31:35.434Z,29.51
2023-05-10T16:34:02.468Z,35.56
2023-05-10T16:36:29.617Z,39.06
2023-05-10T16:38:56.711Z,37.29
2023-05-10T16:41:23.280Z,38.61
2023-05-10T16:43:50.207Z,37.05
2023-05-10T16:46:16.838Z,41.70
2023-05-10T16:48:43.489Z,44.50
2023-05-10T16:51:10.080Z,46.07
2023-05-10T16:53:36.694Z,47.62
2023-05-10T16:56:03.703Z,47.59
2023-05-10T16:58:30.265Z,48.67
2023-05-10T17:00:56.845Z,49.82
2023-05-10T17:03:23.619Z,48.88
2023-05-10T17:05:50.518Z,47.41
2023-05-10T17:08:17.298Z,50.99
2023-05-10T17:10:43.880Z,52.54
2023-05-10T17:13:10.884Z,53.13
2023-05-10T17:15:38.712Z,55.88
2023-05-10T17:18:07.068Z,55.74
2023-05-10T17:20:34.378Z,57.35
2023-05-10T17:23:02.696Z,54.76
2023-05-10T17:25:29.623Z,56.53
2023-05-10T17:27:56.340Z,58.00
2023-05-10T17:30:26.458Z,57.86
2023-05-10T17:32:54.264Z,55.06
2023-05-10T17:35:21.591Z,54.05
2023-05-10T17:37:48.308Z,52.47
2023-05-10T17:40:15.185Z,55.02
2023-05-10T17:42:42.024Z,56.62
2023-05-10T17:45:09.534Z,58.68
2023-05-10T17:47:36.149Z,60.30
2023-05-10T17:50:02.825Z,59.99
2023-05-10T17:52:32.811Z,60.58
2023-05-10T17:55:00.056Z,61.50
2023-05-10T17:57:26.693Z,60.75
2023-05-10T17:59:53.247Z,62.02
2023-05-10T18:02:19.906Z,62.67
2023-05-10T18:04:46.812Z,62.78
2023-05-10T18:07:13.519Z,62.06
2023-05-10T18:09:40.071Z,63.84
2023-05-10T18:12:06.711Z,64.22
2023-05-10T18:17:02.879Z,67.11
2023-05-10T18:19:29.504Z,67.73
2023-05-10T18:21:56.020Z,68.41
2023-05-10T18:24:30.546Z,68.16
2023-05-10T18:27:05.362Z,70.63
2023-05-10T18:29:31.901Z,70.37
2023-05-10T18:31:58.362Z,67.89
2023-05-10T18:34:24.933Z,70.97
2023-05-10T18:36:52.460Z,73.50
2023-05-10T18:39:19.143Z,73.72
2023-05-10T18:41:45.843Z,75.09
2023-05-10T18:44:12.427Z,76.90
2023-05-10T18:46:39.158Z,76.70
2023-05-10T18:49:06.617Z,77.20
2023-05-10T18:51:33.131Z,76.76
2023-05-10T18:54:00.462Z,77.93
2023-05-10T18:56:27.411Z,78.76
2023-05-10T18:58:54.013Z,78.87
2023-05-10T19:01:21.561Z,80.38
2023-05-10T19:03:48.182Z,79.50
2023-05-10T19:06:14.991Z,80.60
2023-05-10T19:08:41.605Z,80.51
2023-05-10T19:11:08.232Z,79.88
2023-05-10T19:13:35.142Z,80.04
2023-05-10T19:16:07.595Z,80.36
2023-05-10T19:18:34.549Z,82.01
2023-05-10T19:21:04.855Z,83.25
2023-05-10T19:23:34.121Z,84.92
2023-05-10T19:26:01.231Z,84.22
2023-05-10T19:28:28.048Z,84.09
2023-05-10T19:30:55.025Z,83.58
2023-05-10T19:33:22.073Z,83.52
2023-05-10T19:35:53.590Z,84.11
2023-05-10T19:38:25.005Z,83.05
2023-05-10T19:40:58.563Z,84.55
2023-05-10T19:43:26.618Z,82.98
2023-05-10T19:45:53.665Z,82.93
2023-05-10T19:48:20.753Z,83.78
2023-05-10T19:50:47.380Z,84.38
2023-05-10T19:53:14.033Z,84.18
2023-05-10T19:55:40.648Z,82.41
2023-05-10T19:58:08.531Z,83.30
2023-05-10T20:00:35.619Z,83.25
2023-05-10T20:03:02.460Z,84.00
2023-05-10T20:05:29.393Z,84.56
2023-05-10T20:07:56.155Z,85.34
2023-05-10T20:10:24.281Z,85.89
2023-05-10T20:12:52.984Z,85.61
2023-05-10T20:15:22.212Z,85.61
2023-05-10T20:17:51.219Z,86.22
2023-05-10T20:20:18.345Z,86.90
2023-05-10T20:22:46.117Z,87.62
2023-05-10T20:25:13.651Z,86.21
2023-05-10T20:27:40.344Z,86.21
2023-05-10T20:30:07.799Z,87.29
2023-05-10T20:32:34.778Z,85.90
2023-05-10T20:35:01.638Z,86.32
2023-05-10T20:37:28.675Z,86.33
2023-05-10T20:39:55.891Z,86.17
2023-05-10T20:42:22.815Z,86.86
2023-05-10T20:44:50.289Z,86.81
2023-05-10T20:47:18.121Z,88.11
2023-05-10T20:49:44.702Z,88.17
2023-05-10T20:52:11.571Z,87.54
2023-05-10T20:54:38.350Z,87.78
2023-05-10T20:57:04.962Z,88.94
2023-05-10T20:59:31.465Z,87.86
2023-05-10T21:01:58.144Z,86.70
2023-05-10T21:04:25.973Z,86.61
2023-05-10T21:06:53.327Z,86.66
2023-05-10T21:09:20.074Z,85.06
2023-05-10T21:11:46.698Z,85.21
2023-05-10T21:14:13.345Z,85.11
2023-05-10T21:16:40.054Z,85.71
2023-05-10T21:19:07.545Z,86.98
2023-05-10T21:21:34.415Z,88.31
2023-05-10T21:24:01.217Z,88.29
2023-05-10T21:26:28.663Z,88.79
2023-05-10T21:28:55.500Z,88.71
2023-05-10T21:31:22.140Z,88.15
2023-05-10T21:33:48.728Z,87.67
2023-05-10T21:36:15.271Z,84.76
2023-05-10T21:38:44.377Z,83.45
2023-05-10T21:41:11.178Z,82.80
2023-05-10T21:43:37.887Z,84.75
2023-05-10T21:46:04.840Z,83.64
2023-05-10T21:48:31.442Z,85.07
2023-05-10T21:50:58.780Z,86.03
2023-05-10T21:53:25.332Z,88.01
2023-05-10T21:55:51.907Z,90.51
2023-05-10T21:58:18.807Z,90.18
2023-05-10T22:00:45.319Z,89.71
2023-05-10T22:03:11.969Z,90.89
2023-05-10T22:05:39.070Z,91.86
2023-05-10T22:08:08.525Z,91.89
2023-05-10T22:10:35.167Z,90.80
2023-05-10T22:13:01.771Z,87.74
2023-05-10T22:15:28.415Z,89.11
2023-05-10T22:17:54.935Z,89.73
2023-05-10T22:20:22.132Z,92.01
2023-05-10T22:22:48.958Z,91.13
2023-05-10T22:25:15.622Z,90.94
2023-05-10T22:27:42.218Z,91.05
2023-05-10T22:30:09.318Z,90.17
2023-05-10T22:32:35.947Z,91.08
2023-05-10T22:35:03.224Z,87.53
2023-05-10T22:37:29.879Z,87.93
2023-05-10T22:39:56.488Z,89.83
2023-05-10T22:42:23.068Z,88.72
2023-05-10T22:44:49.628Z,87.77
2023-05-10T22:47:16.696Z,88.73
2023-05-10T22:49:43.260Z,88.79
2023-05-10T22:52:10.175Z,90.05
2023-05-10T22:54:36.700Z,89.16
2023-05-10T22:57:03.481Z,86.34
2023-05-10T22:59:30.077Z,87.05
2023-05-10T23:01:56.762Z,86.61
2023-05-10T23:04:23.428Z,84.65
2023-05-10T23:06:49.992Z,84.08
2023-05-10T23:09:16.743Z,84.06
2023-05-10T23:11:43.268Z,85.88
2023-05-10T23:14:09.838Z,86.87
2023-05-10T23:16:36.711Z,84.39
2023-05-10T23:19:03.611Z,85.81
2023-05-10T23:21:32.218Z,85.52
2023-05-10T23:23:59.039Z,85.48
2023-05-10T23:26:25.642Z,84.94
2023-05-10T23:28:52.344Z,85.72
2023-05-10T23:31:18.961Z,86.70
2023-05-10T23:33:45.661Z,85.88
2023-05-10T23:36:12.468Z,86.68
2023-05-10T23:38:39.454Z,85.82
2023-05-10T23:41:06.258Z,86.56
2023-05-10T23:43:32.844Z,86.56
2023-05-10T23:45:59.593Z,87.19
2023-05-10T23:48:26.366Z,86.86
2023-05-10T23:50:53.207Z,86.15
2023-05-10T23:53:19.874Z,84.96
2023-05-10T23:55:46.490Z,86.55
2023-05-10T23:58:13.121Z,85.97
